CheckWX is a tool to help pilots better visualize weather data.  It is not intended as a substitute for an official pre-flight weather briefing.

09:27:54 UTC

SCQP TAF
Temuco Airport
Temuco, Switzerland
TAF COR SCQP 230412Z 2306/2406 VRB02KT 2000 BR NSC TN02/2310Z TX18/2319Z TEMPO 2306/2312 0600 FG BKN002 BECMG 2313/2315 20010KT CAVOK BECMG 2318/2320 24010KT BECMG 2402/2404 16005KT

Sep-23@
06:00 UTC

Sep-23 @ 06:00 UTC

Sep-23@
13:00 UTC

Sep-23 @ 13:00 UTC

TAF COR SCQP 230412Z 2306/2406 VRB02KT 2000 BR NSC TN02/2310Z TX18/2319Z
Wind
  • Variable at 2 KTS
Conditions
Mist
Cloud Levels
  • No significant clouds

Sep-23@
06:00 UTC

Sep-23 @ 06:00 UTC

Sep-23@
12:00 UTC

Sep-23 @ 12:00 UTC

TEMPO 2306/2312 0600 FG BKN002

Temporary

Temporary Changes expected for less than half the time period

Conditions
Fog
Cloud Levels
  • Broken at 200' AGL

Sep-23@
13:00 UTC

Sep-23 @ 13:00 UTC

Sep-23@
18:00 UTC

Sep-23 @ 18:00 UTC

BECMG 2313/2315 20010KT CAVOK

Becoming

Becoming Conditions expected by Mon, Sep 23, 2019 @ 15:00 UTC

Wind
  • 200° at 10 KTS
Conditions
No significant weather
Cloud Levels
  • No significant clouds

Sep-23@
18:00 UTC

Sep-23 @ 18:00 UTC

Sep-24@
02:00 UTC

Sep-24 @ 02:00 UTC

BECMG 2318/2320 24010KT

Becoming

Becoming Conditions expected by Mon, Sep 23, 2019 @ 20:00 UTC

Wind
  • 240° at 10 KTS
Conditions
No significant weather
Cloud Levels
  • No significant clouds

Sep-24@
02:00 UTC

Sep-24 @ 02:00 UTC

Sep-24@
06:00 UTC

Sep-24 @ 06:00 UTC

BECMG 2402/2404 16005KT

Becoming

Becoming Conditions expected by Tue, Sep 24, 2019 @ 04:00 UTC

Wind
  • 160° at 5 KTS
Conditions
No significant weather
Cloud Levels
  • No significant clouds